Palo Pinto, Texas
Current Conditions -  °F | °C
As of 10:53 PM on Friday 31 Oct 2014 (Local Time) from KMWL Reporting Station
Clear Clear  
Wind Chill: 49°   Ceiling: Unl
Heat Index: 49°   Visibility: 10mi
Dew Point: 38°   Wind: 3mph
Humidity: 66%   Direction: 20°NNE
Pressure: 30.36"   Gusts: NA
Location:  32.77°N, 98.3°W
Report Text: KMWL 010353Z AUTO 02003KT 10SM CLR 09/03 A3036 RMK AO2 SLP278 T00940033
Loading
Personal Weather Stations






























Interactive Weather Map
Tropical Storm Tracking
New forecast layout! Learn more

10-Day Weather Forecast

Advertisements
Track Severe Weather on mobile